sensor_id;sensor_type;location;lat;lon;timestamp;temperature;humidity
49731;DHT22;35622;52.008;5.426;2023-04-03T00:00:49;5.70;64.50
49731;DHT22;35622;52.008;5.426;2023-04-03T00:03:15;5.60;64.50
49731;DHT22;35622;52.008;5.426;2023-04-03T00:05:41;5.60;64.60
49731;DHT22;35622;52.008;5.426;2023-04-03T00:08:07;5.50;64.60
49731;DHT22;35622;52.008;5.426;2023-04-03T00:10:35;5.50;64.60
49731;DHT22;35622;52.008;5.426;2023-04-03T00:13:02;5.50;64.80
49731;DHT22;35622;52.008;5.426;2023-04-03T00:15:27;5.50;64.80
49731;DHT22;35622;52.008;5.426;2023-04-03T00:17:53;5.50;64.80
49731;DHT22;35622;52.008;5.426;2023-04-03T00:20:18;5.40;64.80
49731;DHT22;35622;52.008;5.426;2023-04-03T00:22:44;5.40;64.90
49731;DHT22;35622;52.008;5.426;2023-04-03T00:25:10;5.40;65.00
49731;DHT22;35622;52.008;5.426;2023-04-03T00:27:39;5.40;65.00
49731;DHT22;35622;52.008;5.426;2023-04-03T00:30:07;5.40;65.10
49731;DHT22;35622;52.008;5.426;2023-04-03T00:32:33;5.40;65.20
49731;DHT22;35622;52.008;5.426;2023-04-03T00:34:59;5.30;65.10
49731;DHT22;35622;52.008;5.426;2023-04-03T00:37:25;5.30;65.20
49731;DHT22;35622;52.008;5.426;2023-04-03T00:39:50;5.30;65.30
49731;DHT22;35622;52.008;5.426;2023-04-03T00:42:16;5.20;65.20
49731;DHT22;35622;52.008;5.426;2023-04-03T00:47:11;5.20;65.40
49731;DHT22;35622;52.008;5.426;2023-04-03T00:49:38;5.20;65.50
49731;DHT22;35622;52.008;5.426;2023-04-03T00:52:11;5.10;65.40
49731;DHT22;35622;52.008;5.426;2023-04-03T00:54:40;5.10;65.60
49731;DHT22;35622;52.008;5.426;2023-04-03T00:57:07;5.10;65.60
49731;DHT22;35622;52.008;5.426;2023-04-03T00:59:36;5.10;65.60
49731;DHT22;35622;52.008;5.426;2023-04-03T01:02:03;5.10;65.60
49731;DHT22;35622;52.008;5.426;2023-04-03T01:07:20;5.00;65.70
49731;DHT22;35622;52.008;5.426;2023-04-03T01:09:45;5.00;65.70
49731;DHT22;35622;52.008;5.426;2023-04-03T01:14:43;4.90;65.70
49731;DHT22;35622;52.008;5.426;2023-04-03T01:25:12;4.80;65.90
49731;DHT22;35622;52.008;5.426;2023-04-03T01:27:38;4.80;65.90
49731;DHT22;35622;52.008;5.426;2023-04-03T01:30:04;4.80;66.10
49731;DHT22;35622;52.008;5.426;2023-04-03T01:32:31;4.70;66.00
49731;DHT22;35622;52.008;5.426;2023-04-03T01:34:56;4.80;66.10
49731;DHT22;35622;52.008;5.426;2023-04-03T01:37:22;4.70;66.10
49731;DHT22;35622;52.008;5.426;2023-04-03T01:39:47;4.70;66.20
49731;DHT22;35622;52.008;5.426;2023-04-03T01:42:13;4.70;66.30
49731;DHT22;35622;52.008;5.426;2023-04-03T01:44:38;4.70;66.40
49731;DHT22;35622;52.008;5.426;2023-04-03T01:47:06;4.70;66.50
49731;DHT22;35622;52.008;5.426;2023-04-03T01:49:32;4.70;66.60
49731;DHT22;35622;52.008;5.426;2023-04-03T01:51:58;4.70;66.60
49731;DHT22;35622;52.008;5.426;2023-04-03T01:54:23;4.60;66.60
49731;DHT22;35622;52.008;5.426;2023-04-03T01:56:49;4.60;66.60
49731;DHT22;35622;52.008;5.426;2023-04-03T01:59:14;4.60;66.50
49731;DHT22;35622;52.008;5.426;2023-04-03T02:01:42;4.60;66.60
49731;DHT22;35622;52.008;5.426;2023-04-03T02:04:09;4.60;66.60
49731;DHT22;35622;52.008;5.426;2023-04-03T02:06:34;4.60;66.60
49731;DHT22;35622;52.008;5.426;2023-04-03T02:09:00;4.50;66.50
49731;DHT22;35622;52.008;5.426;2023-04-03T02:11:26;4.50;66.60
49731;DHT22;35622;52.008;5.426;2023-04-03T02:13:51;4.50;66.70
49731;DHT22;35622;52.008;5.426;2023-04-03T02:16:17;4.50;66.80
49731;DHT22;35622;52.008;5.426;2023-04-03T02:18:42;4.50;66.90
49731;DHT22;35622;52.008;5.426;2023-04-03T02:21:08;4.50;67.00
49731;DHT22;35622;52.008;5.426;2023-04-03T02:23:34;4.50;66.90
49731;DHT22;35622;52.008;5.426;2023-04-03T02:26:06;4.50;66.90
49731;DHT22;35622;52.008;5.426;2023-04-03T02:28:33;4.40;66.80
49731;DHT22;35622;52.008;5.426;2023-04-03T02:30:59;4.40;66.80
49731;DHT22;35622;52.008;5.426;2023-04-03T02:33:24;4.40;67.00
49731;DHT22;35622;52.008;5.426;2023-04-03T02:35:54;4.40;67.10
49731;DHT22;35622;52.008;5.426;2023-04-03T02:38:21;4.40;67.10
49731;DHT22;35622;52.008;5.426;2023-04-03T02:40:46;4.30;67.00
49731;DHT22;35622;52.008;5.426;2023-04-03T02:43:12;4.30;67.10
49731;DHT22;35622;52.008;5.426;2023-04-03T02:45:38;4.30;67.20
49731;DHT22;35622;52.008;5.426;2023-04-03T02:48:03;4.30;67.20
49731;DHT22;35622;52.008;5.426;2023-04-03T02:50:29;4.30;67.70
49731;DHT22;35622;52.008;5.426;2023-04-03T02:52:55;4.40;68.10
49731;DHT22;35622;52.008;5.426;2023-04-03T02:55:20;4.40;67.90
49731;DHT22;35622;52.008;5.426;2023-04-03T02:57:46;4.40;67.70
49731;DHT22;35622;52.008;5.426;2023-04-03T03:00:12;4.40;67.50
49731;DHT22;35622;52.008;5.426;2023-04-03T03:02:38;4.40;67.40
49731;DHT22;35622;52.008;5.426;2023-04-03T03:05:04;4.40;67.40
49731;DHT22;35622;52.008;5.426;2023-04-03T03:07:30;4.40;67.50
49731;DHT22;35622;52.008;5.426;2023-04-03T03:09:55;4.30;67.50
49731;DHT22;35622;52.008;5.426;2023-04-03T03:12:21;4.40;67.60
49731;DHT22;35622;52.008;5.426;2023-04-03T03:14:47;4.40;67.60
49731;DHT22;35622;52.008;5.426;2023-04-03T03:17:13;4.30;67.50
49731;DHT22;35622;52.008;5.426;2023-04-03T03:19:39;4.20;67.40
49731;DHT22;35622;52.008;5.426;2023-04-03T03:22:04;4.20;67.40
49731;DHT22;35622;52.008;5.426;2023-04-03T03:24:30;4.20;67.60
49731;DHT22;35622;52.008;5.426;2023-04-03T03:26:55;4.20;67.60
49731;DHT22;35622;52.008;5.426;2023-04-03T03:29:21;4.20;67.60
49731;DHT22;35622;52.008;5.426;2023-04-03T03:31:47;4.10;67.50
49731;DHT22;35622;52.008;5.426;2023-04-03T03:34:12;4.20;67.70
49731;DHT22;35622;52.008;5.426;2023-04-03T03:36:38;4.20;67.80
49731;DHT22;35622;52.008;5.426;2023-04-03T03:39:04;4.10;67.80
49731;DHT22;35622;52.008;5.426;2023-04-03T03:41:29;4.10;67.80
49731;DHT22;35622;52.008;5.426;2023-04-03T03:43:55;4.10;67.80
49731;DHT22;35622;52.008;5.426;2023-04-03T03:46:20;4.10;67.90
49731;DHT22;35622;52.008;5.426;2023-04-03T03:48:46;4.10;68.90
49731;DHT22;35622;52.008;5.426;2023-04-03T03:51:12;4.10;68.00
49731;DHT22;35622;52.008;5.426;2023-04-03T03:53:37;4.10;68.00
49731;DHT22;35622;52.008;5.426;2023-04-03T03:56:03;4.00;67.90
49731;DHT22;35622;52.008;5.426;2023-04-03T03:58:29;4.10;68.00
49731;DHT22;35622;52.008;5.426;2023-04-03T04:00:55;4.10;68.20
49731;DHT22;35622;52.008;5.426;2023-04-03T04:03:21;4.00;68.10
49731;DHT22;35622;52.008;5.426;2023-04-03T04:05:46;4.00;68.10
49731;DHT22;35622;52.008;5.426;2023-04-03T04:08:12;4.00;68.10
49731;DHT22;35622;52.008;5.426;2023-04-03T04:10:38;4.00;68.20
49731;DHT22;35622;52.008;5.426;2023-04-03T04:13:04;4.00;68.30
49731;DHT22;35622;52.008;5.426;2023-04-03T04:15:29;4.00;68.30
49731;DHT22;35622;52.008;5.426;2023-04-03T04:17:56;4.00;68.30
49731;DHT22;35622;52.008;5.426;2023-04-03T04:20:22;4.00;68.40
49731;DHT22;35622;52.008;5.426;2023-04-03T04:22:48;4.00;68.50
49731;DHT22;35622;52.008;5.426;2023-04-03T04:25:13;4.00;68.50
49731;DHT22;35622;52.008;5.426;2023-04-03T04:27:39;4.00;68.50
49731;DHT22;35622;52.008;5.426;2023-04-03T04:30:05;4.00;68.60
49731;DHT22;35622;52.008;5.426;2023-04-03T04:32:31;4.00;68.50
49731;DHT22;35622;52.008;5.426;2023-04-03T04:34:57;4.00;68.50
49731;DHT22;35622;52.008;5.426;2023-04-03T04:37:22;3.90;68.40
49731;DHT22;35622;52.008;5.426;2023-04-03T04:39:48;4.00;68.60
49731;DHT22;35622;52.008;5.426;2023-04-03T04:42:13;3.90;68.50
49731;DHT22;35622;52.008;5.426;2023-04-03T04:44:39;3.90;68.50
49731;DHT22;35622;52.008;5.426;2023-04-03T04:47:05;3.90;68.60
49731;DHT22;35622;52.008;5.426;2023-04-03T04:49:30;3.90;68.60
49731;DHT22;35622;52.008;5.426;2023-04-03T04:51:56;3.90;68.60
49731;DHT22;35622;52.008;5.426;2023-04-03T04:54:21;3.90;68.60
49731;DHT22;35622;52.008;5.426;2023-04-03T04:56:47;3.90;68.70
49731;DHT22;35622;52.008;5.426;2023-04-03T04:59:12;3.90;68.70
49731;DHT22;35622;52.008;5.426;2023-04-03T05:01:38;3.90;68.70
49731;DHT22;35622;52.008;5.426;2023-04-03T05:04:07;3.90;68.70
49731;DHT22;35622;52.008;5.426;2023-04-03T05:06:37;3.90;68.80
49731;DHT22;35622;52.008;5.426;2023-04-03T05:09:03;3.90;68.90
49731;DHT22;35622;52.008;5.426;2023-04-03T05:11:29;3.90;68.90
49731;DHT22;35622;52.008;5.426;2023-04-03T05:13:54;3.90;68.90
49731;DHT22;35622;52.008;5.426;2023-04-03T05:16:20;3.90;69.00
49731;DHT22;35622;52.008;5.426;2023-04-03T05:18:46;3.90;69.00
49731;DHT22;35622;52.008;5.426;2023-04-03T05:21:11;3.90;69.10
49731;DHT22;35622;52.008;5.426;2023-04-03T05:23:37;3.90;69.20
49731;DHT22;35622;52.008;5.426;2023-04-03T05:26:02;3.90;69.20
49731;DHT22;35622;52.008;5.426;2023-04-03T05:28:28;3.90;69.20
49731;DHT22;35622;52.008;5.426;2023-04-03T05:30:58;3.90;69.20
49731;DHT22;35622;52.008;5.426;2023-04-03T05:33:24;3.90;69.20
49731;DHT22;35622;52.008;5.426;2023-04-03T05:35:51;3.90;69.30
49731;DHT22;35622;52.008;5.426;2023-04-03T05:38:17;4.00;69.30
49731;DHT22;35622;52.008;5.426;2023-04-03T05:40:42;4.00;69.40
49731;DHT22;35622;52.008;5.426;2023-04-03T05:43:08;4.00;69.50
49731;DHT22;35622;52.008;5.426;2023-04-03T05:45:34;4.00;69.60
49731;DHT22;35622;52.008;5.426;2023-04-03T05:47:59;4.00;69.60
49731;DHT22;35622;52.008;5.426;2023-04-03T05:50:25;4.00;69.60
49731;DHT22;35622;52.008;5.426;2023-04-03T05:52:52;4.10;69.70
49731;DHT22;35622;52.008;5.426;2023-04-03T05:55:20;4.10;69.70
49731;DHT22;35622;52.008;5.426;2023-04-03T05:57:46;4.10;69.70
49731;DHT22;35622;52.008;5.426;2023-04-03T06:00:16;4.10;69.80
49731;DHT22;35622;52.008;5.426;2023-04-03T06:02:43;4.20;69.90
49731;DHT22;35622;52.008;5.426;2023-04-03T06:05:09;4.30;70.00
49731;DHT22;35622;52.008;5.426;2023-04-03T06:07:37;4.30;70.10
49731;DHT22;35622;52.008;5.426;2023-04-03T06:10:03;4.40;70.30
49731;DHT22;35622;52.008;5.426;2023-04-03T06:12:28;4.60;70.70
49731;DHT22;35622;52.008;5.426;2023-04-03T06:14:55;4.70;70.70
49731;DHT22;35622;52.008;5.426;2023-04-03T06:17:20;4.90;70.90
49731;DHT22;35622;52.008;5.426;2023-04-03T06:19:46;5.10;71.70
49731;DHT22;35622;52.008;5.426;2023-04-03T06:22:12;5.30;71.60
49731;DHT22;35622;52.008;5.426;2023-04-03T06:24:38;5.40;71.30
49731;DHT22;35622;52.008;5.426;2023-04-03T06:27:04;5.50;71.40
49731;DHT22;35622;52.008;5.426;2023-04-03T06:29:30;5.70;71.40
49731;DHT22;35622;52.008;5.426;2023-04-03T06:31:56;5.80;71.20
49731;DHT22;35622;52.008;5.426;2023-04-03T06:34:22;6.00;71.30
49731;DHT22;35622;52.008;5.426;2023-04-03T06:36:47;6.10;71.20
49731;DHT22;35622;52.008;5.426;2023-04-03T06:39:21;6.30;71.30
49731;DHT22;35622;52.008;5.426;2023-04-03T06:41:48;7.40;75.20
49731;DHT22;35622;52.008;5.426;2023-04-03T06:44:14;10.10;78.10
49731;DHT22;35622;52.008;5.426;2023-04-03T06:46:42;13.40;69.20
49731;DHT22;35622;52.008;5.426;2023-04-03T06:49:08;16.50;64.60
49731;DHT22;35622;52.008;5.426;2023-04-03T06:51:34;19.30;52.60
49731;DHT22;35622;52.008;5.426;2023-04-03T06:54:02;21.00;48.30
49731;DHT22;35622;52.008;5.426;2023-04-03T06:56:28;23.20;44.40
49731;DHT22;35622;52.008;5.426;2023-04-03T06:58:55;25.10;37.90
49731;DHT22;35622;52.008;5.426;2023-04-03T07:01:24;26.50;31.50
49731;DHT22;35622;52.008;5.426;2023-04-03T07:03:51;27.60;27.70
49731;DHT22;35622;52.008;5.426;2023-04-03T07:06:18;28.30;22.10
49731;DHT22;35622;52.008;5.426;2023-04-03T07:08:44;28.50;22.50
49731;DHT22;35622;52.008;5.426;2023-04-03T07:11:11;29.00;21.80
49731;DHT22;35622;52.008;5.426;2023-04-03T07:13:37;30.20;21.70
49731;DHT22;35622;52.008;5.426;2023-04-03T07:16:03;31.30;20.20
49731;DHT22;35622;52.008;5.426;2023-04-03T07:18:30;31.80;19.20
49731;DHT22;35622;52.008;5.426;2023-04-03T07:20:56;32.40;18.30
49731;DHT22;35622;52.008;5.426;2023-04-03T07:23:22;33.00;17.70
49731;DHT22;35622;52.008;5.426;2023-04-03T07:25:49;33.30;16.70
49731;DHT22;35622;52.008;5.426;2023-04-03T07:28:16;33.30;16.00
49731;DHT22;35622;52.008;5.426;2023-04-03T07:30:52;32.90;15.00
49731;DHT22;35622;52.008;5.426;2023-04-03T07:33:21;33.10;16.50
49731;DHT22;35622;52.008;5.426;2023-04-03T07:35:47;34.00;15.40
49731;DHT22;35622;52.008;5.426;2023-04-03T07:38:13;34.50;15.30
49731;DHT22;35622;52.008;5.426;2023-04-03T07:40:39;35.00;14.70
49731;DHT22;35622;52.008;5.426;2023-04-03T07:43:05;35.30;13.90
49731;DHT22;35622;52.008;5.426;2023-04-03T07:45:33;35.40;13.60
49731;DHT22;35622;52.008;5.426;2023-04-03T07:48:00;35.70;13.10
49731;DHT22;35622;52.008;5.426;2023-04-03T07:50:26;35.90;12.90
49731;DHT22;35622;52.008;5.426;2023-04-03T07:52:52;35.70;12.60
49731;DHT22;35622;52.008;5.426;2023-04-03T07:55:19;35.50;12.20
49731;DHT22;35622;52.008;5.426;2023-04-03T07:57:45;35.70;12.80
49731;DHT22;35622;52.008;5.426;2023-04-03T08:00:11;35.90;12.60
49731;DHT22;35622;52.008;5.426;2023-04-03T08:02:37;35.60;12.20
49731;DHT22;35622;52.008;5.426;2023-04-03T08:05:03;35.60;11.50
49731;DHT22;35622;52.008;5.426;2023-04-03T08:07:28;35.30;11.90
49731;DHT22;35622;52.008;5.426;2023-04-03T08:09:54;36.00;12.50
49731;DHT22;35622;52.008;5.426;2023-04-03T08:12:20;36.70;12.50
49731;DHT22;35622;52.008;5.426;2023-04-03T08:14:46;37.10;11.30
49731;DHT22;35622;52.008;5.426;2023-04-03T08:17:11;37.10;11.10
49731;DHT22;35622;52.008;5.426;2023-04-03T08:19:38;37.60;11.20
49731;DHT22;35622;52.008;5.426;2023-04-03T08:22:04;37.90;11.00
49731;DHT22;35622;52.008;5.426;2023-04-03T08:24:31;38.20;10.40
49731;DHT22;35622;52.008;5.426;2023-04-03T08:26:56;38.40;10.00
49731;DHT22;35622;52.008;5.426;2023-04-03T08:29:23;39.00;10.30
49731;DHT22;35622;52.008;5.426;2023-04-03T08:31:49;39.60;10.30
49731;DHT22;35622;52.008;5.426;2023-04-03T08:34:15;40.30;10.20
49731;DHT22;35622;52.008;5.426;2023-04-03T08:36:42;40.80;8.80
49731;DHT22;35622;52.008;5.426;2023-04-03T08:39:07;40.40;8.20
49731;DHT22;35622;52.008;5.426;2023-04-03T08:44:44;40.30;8.90
49731;DHT22;35622;52.008;5.426;2023-04-03T08:47:19;40.80;9.00
49731;DHT22;35622;52.008;5.426;2023-04-03T08:49:56;41.50;8.90
49731;DHT22;35622;52.008;5.426;2023-04-03T08:52:53;41.60;7.90
49731;DHT22;35622;52.008;5.426;2023-04-03T08:57:44;41.20;7.70
49731;DHT22;35622;52.008;5.426;2023-04-03T09:02:50;41.10;7.30
49731;DHT22;35622;52.008;5.426;2023-04-03T09:05:35;40.80;7.40
49731;DHT22;35622;52.008;5.426;2023-04-03T09:08:12;40.50;7.30
49731;DHT22;35622;52.008;5.426;2023-04-03T09:10:40;40.70;6.70
49731;DHT22;35622;52.008;5.426;2023-04-03T09:15:44;39.60;6.00
49731;DHT22;35622;52.008;5.426;2023-04-03T09:21:07;39.20;6.60
49731;DHT22;35622;52.008;5.426;2023-04-03T09:23:46;39.60;6.90
49731;DHT22;35622;52.008;5.426;2023-04-03T09:28:45;37.20;4.80
49731;DHT22;35622;52.008;5.426;2023-04-03T09:31:30;36.00;6.50
49731;DHT22;35622;52.008;5.426;2023-04-03T09:34:04;36.00;7.10
49731;DHT22;35622;52.008;5.426;2023-04-03T09:36:50;36.40;6.80
49731;DHT22;35622;52.008;5.426;2023-04-03T09:39:19;35.90;6.50
49731;DHT22;35622;52.008;5.426;2023-04-03T09:44:30;35.40;6.40
49731;DHT22;35622;52.008;5.426;2023-04-03T09:46:56;35.00;6.50
49731;DHT22;35622;52.008;5.426;2023-04-03T09:49:21;34.70;6.40
49731;DHT22;35622;52.008;5.426;2023-04-03T09:51:47;34.90;6.60
49731;DHT22;35622;52.008;5.426;2023-04-03T09:54:36;34.80;6.00
49731;DHT22;35622;52.008;5.426;2023-04-03T09:57:11;35.30;6.70
49731;DHT22;35622;52.008;5.426;2023-04-03T10:00:03;35.70;6.60
49731;DHT22;35622;52.008;5.426;2023-04-03T10:02:35;35.90;6.10
49731;DHT22;35622;52.008;5.426;2023-04-03T10:05:02;35.90;6.00
49731;DHT22;35622;52.008;5.426;2023-04-03T10:07:36;36.30;6.20
49731;DHT22;35622;52.008;5.426;2023-04-03T10:12:40;35.20;4.60
49731;DHT22;35622;52.008;5.426;2023-04-03T10:15:14;35.20;5.40
49731;DHT22;35622;52.008;5.426;2023-04-03T10:17:55;35.00;5.80
49731;DHT22;35622;52.008;5.426;2023-04-03T10:23:07;35.40;6.10
49731;DHT22;35622;52.008;5.426;2023-04-03T10:26:02;35.10;5.50
49731;DHT22;35622;52.008;5.426;2023-04-03T10:47:20;35.30;5.30
49731;DHT22;35622;52.008;5.426;2023-04-03T10:53:39;35.30;5.30
49731;DHT22;35622;52.008;5.426;2023-04-03T10:58:34;33.00;5.40
49731;DHT22;35622;52.008;5.426;2023-04-03T11:01:07;32.30;6.30
49731;DHT22;35622;52.008;5.426;2023-04-03T11:03:56;32.50;6.60
49731;DHT22;35622;52.008;5.426;2023-04-03T11:06:25;32.70;7.20
49731;DHT22;35622;52.008;5.426;2023-04-03T11:11:30;31.80;7.10
49731;DHT22;35622;52.008;5.426;2023-04-03T11:14:11;31.70;7.80
49731;DHT22;35622;52.008;5.426;2023-04-03T11:16:47;31.70;7.40
49731;DHT22;35622;52.008;5.426;2023-04-03T11:19:18;32.20;8.40
49731;DHT22;35622;52.008;5.426;2023-04-03T11:22:50;32.30;7.80
49731;DHT22;35622;52.008;5.426;2023-04-03T11:27:45;32.80;8.10
49731;DHT22;35622;52.008;5.426;2023-04-03T11:36:13;32.70;8.10
49731;DHT22;35622;52.008;5.426;2023-04-03T11:38:46;32.70;8.10
49731;DHT22;35622;52.008;5.426;2023-04-03T11:41:13;32.00;7.70
49731;DHT22;35622;52.008;5.426;2023-04-03T11:44:06;31.30;7.80
49731;DHT22;35622;52.008;5.426;2023-04-03T11:46:52;31.20;8.50
49731;DHT22;35622;52.008;5.426;2023-04-03T11:49:51;31.10;8.50
49731;DHT22;35622;52.008;5.426;2023-04-03T12:16:32;30.60;8.70
49731;DHT22;35622;52.008;5.426;2023-04-03T12:19:01;31.10;9.20
49731;DHT22;35622;52.008;5.426;2023-04-03T12:38:17;28.40;10.00
49731;DHT22;35622;52.008;5.426;2023-04-03T12:46:14;26.40;11.00
49731;DHT22;35622;52.008;5.426;2023-04-03T12:48:53;25.90;11.80
49731;DHT22;35622;52.008;5.426;2023-04-03T12:51:28;25.60;12.10
49731;DHT22;35622;52.008;5.426;2023-04-03T12:54:01;25.40;12.80
49731;DHT22;35622;52.008;5.426;2023-04-03T12:56:30;24.90;11.70
49731;DHT22;35622;52.008;5.426;2023-04-03T12:59:18;24.50;12.60
49731;DHT22;35622;52.008;5.426;2023-04-03T13:01:44;23.90;12.40
49731;DHT22;35622;52.008;5.426;2023-04-03T13:04:18;23.10;13.00
49731;DHT22;35622;52.008;5.426;2023-04-03T13:06:44;21.90;14.20
49731;DHT22;35622;52.008;5.426;2023-04-03T13:09:25;21.20;15.20
49731;DHT22;35622;52.008;5.426;2023-04-03T13:12:00;20.60;15.90
49731;DHT22;35622;52.008;5.426;2023-04-03T13:14:27;20.10;16.20
49731;DHT22;35622;52.008;5.426;2023-04-03T13:19:24;18.80;17.60
49731;DHT22;35622;52.008;5.426;2023-04-03T13:24:39;17.70;19.10
49731;DHT22;35622;52.008;5.426;2023-04-03T13:27:05;17.30;19.30
49731;DHT22;35622;52.008;5.426;2023-04-03T13:29:34;16.90;19.70
49731;DHT22;35622;52.008;5.426;2023-04-03T13:32:03;16.70;20.20
49731;DHT22;35622;52.008;5.426;2023-04-03T13:34:39;16.40;20.70
49731;DHT22;35622;52.008;5.426;2023-04-03T13:37:06;16.30;21.40
49731;DHT22;35622;52.008;5.426;2023-04-03T13:39:38;16.00;21.10
49731;DHT22;35622;52.008;5.426;2023-04-03T13:42:25;15.80;21.20
49731;DHT22;35622;52.008;5.426;2023-04-03T13:47:47;15.40;22.60
49731;DHT22;35622;52.008;5.426;2023-04-03T13:50:18;15.30;22.50
49731;DHT22;35622;52.008;5.426;2023-04-03T13:52:49;15.30;22.90
49731;DHT22;35622;52.008;5.426;2023-04-03T13:55:24;15.40;22.60
49731;DHT22;35622;52.008;5.426;2023-04-03T13:58:21;15.30;22.80
49731;DHT22;35622;52.008;5.426;2023-04-03T14:00:54;15.30;22.50
49731;DHT22;35622;52.008;5.426;2023-04-03T14:03:31;15.20;22.40
49731;DHT22;35622;52.008;5.426;2023-04-03T14:05:57;15.30;22.80
49731;DHT22;35622;52.008;5.426;2023-04-03T14:08:23;15.30;22.70
49731;DHT22;35622;52.008;5.426;2023-04-03T14:10:49;15.40;23.20
49731;DHT22;35622;52.008;5.426;2023-04-03T14:13:16;15.50;23.40
49731;DHT22;35622;52.008;5.426;2023-04-03T14:15:43;15.50;23.30
49731;DHT22;35622;52.008;5.426;2023-04-03T14:18:12;15.50;23.40
49731;DHT22;35622;52.008;5.426;2023-04-03T14:20:37;15.50;23.30
49731;DHT22;35622;52.008;5.426;2023-04-03T14:23:03;15.60;23.50
49731;DHT22;35622;52.008;5.426;2023-04-03T14:25:29;15.70;23.50
49731;DHT22;35622;52.008;5.426;2023-04-03T14:27:55;15.50;22.60
49731;DHT22;35622;52.008;5.426;2023-04-03T14:30:27;15.50;22.60
49731;DHT22;35622;52.008;5.426;2023-04-03T14:32:53;15.60;23.50
49731;DHT22;35622;52.008;5.426;2023-04-03T14:35:20;15.70;23.40
49731;DHT22;35622;52.008;5.426;2023-04-03T14:37:46;15.60;23.20
49731;DHT22;35622;52.008;5.426;2023-04-03T14:40:14;15.50;23.10
49731;DHT22;35622;52.008;5.426;2023-04-03T14:42:40;15.40;23.70
49731;DHT22;35622;52.008;5.426;2023-04-03T14:45:10;15.40;24.40
49731;DHT22;35622;52.008;5.426;2023-04-03T14:47:42;15.50;23.60
49731;DHT22;35622;52.008;5.426;2023-04-03T14:50:13;15.30;23.60
49731;DHT22;35622;52.008;5.426;2023-04-03T14:52:40;15.00;23.30
49731;DHT22;35622;52.008;5.426;2023-04-03T14:55:06;15.10;24.10
49731;DHT22;35622;52.008;5.426;2023-04-03T14:57:32;15.10;24.50
49731;DHT22;35622;52.008;5.426;2023-04-03T14:59:58;15.00;23.80
49731;DHT22;35622;52.008;5.426;2023-04-03T15:02:35;15.00;24.30
49731;DHT22;35622;52.008;5.426;2023-04-03T15:05:02;14.90;24.20
49731;DHT22;35622;52.008;5.426;2023-04-03T15:07:31;15.00;24.50
49731;DHT22;35622;52.008;5.426;2023-04-03T15:09:58;15.10;24.70
49731;DHT22;35622;52.008;5.426;2023-04-03T15:12:25;15.00;24.20
49731;DHT22;35622;52.008;5.426;2023-04-03T15:14:50;15.00;24.50
49731;DHT22;35622;52.008;5.426;2023-04-03T15:17:18;14.90;24.70
49731;DHT22;35622;52.008;5.426;2023-04-03T15:19:45;14.90;25.00
49731;DHT22;35622;52.008;5.426;2023-04-03T15:22:16;14.70;24.90
49731;DHT22;35622;52.008;5.426;2023-04-03T15:24:43;14.80;24.80
49731;DHT22;35622;52.008;5.426;2023-04-03T15:27:09;14.80;25.00
49731;DHT22;35622;52.008;5.426;2023-04-03T15:29:37;14.60;25.00
49731;DHT22;35622;52.008;5.426;2023-04-03T15:32:03;14.50;25.30
49731;DHT22;35622;52.008;5.426;2023-04-03T15:34:29;14.60;25.80
49731;DHT22;35622;52.008;5.426;2023-04-03T15:36:55;14.60;25.80
49731;DHT22;35622;52.008;5.426;2023-04-03T15:39:21;14.50;25.60
49731;DHT22;35622;52.008;5.426;2023-04-03T15:41:48;14.50;25.60
49731;DHT22;35622;52.008;5.426;2023-04-03T15:44:13;14.30;25.90
49731;DHT22;35622;52.008;5.426;2023-04-03T15:46:42;14.30;26.10
49731;DHT22;35622;52.008;5.426;2023-04-03T15:49:08;14.40;26.10
49731;DHT22;35622;52.008;5.426;2023-04-03T15:51:34;14.20;26.20
49731;DHT22;35622;52.008;5.426;2023-04-03T15:54:00;14.10;26.40
49731;DHT22;35622;52.008;5.426;2023-04-03T15:56:26;14.00;26.60
49731;DHT22;35622;52.008;5.426;2023-04-03T15:58:51;14.00;26.80
49731;DHT22;35622;52.008;5.426;2023-04-03T16:01:17;14.00;27.10
49731;DHT22;35622;52.008;5.426;2023-04-03T16:03:43;14.00;27.30
49731;DHT22;35622;52.008;5.426;2023-04-03T16:06:15;14.10;27.10
49731;DHT22;35622;52.008;5.426;2023-04-03T16:08:41;14.00;27.20
49731;DHT22;35622;52.008;5.426;2023-04-03T16:11:07;13.80;27.40
49731;DHT22;35622;52.008;5.426;2023-04-03T16:13:33;14.00;28.10
49731;DHT22;35622;52.008;5.426;2023-04-03T16:15:59;13.90;28.10
49731;DHT22;35622;52.008;5.426;2023-04-03T16:18:25;13.90;28.20
49731;DHT22;35622;52.008;5.426;2023-04-03T16:20:51;13.80;28.10
49731;DHT22;35622;52.008;5.426;2023-04-03T16:23:17;13.80;28.20
49731;DHT22;35622;52.008;5.426;2023-04-03T16:25:43;13.80;28.10
49731;DHT22;35622;52.008;5.426;2023-04-03T16:28:12;13.70;28.40
49731;DHT22;35622;52.008;5.426;2023-04-03T16:30:41;13.60;28.90
49731;DHT22;35622;52.008;5.426;2023-04-03T16:33:08;13.60;28.70
49731;DHT22;35622;52.008;5.426;2023-04-03T16:35:34;13.50;28.90
49731;DHT22;35622;52.008;5.426;2023-04-03T16:38:00;13.40;29.30
49731;DHT22;35622;52.008;5.426;2023-04-03T16:40:25;13.40;29.60
49731;DHT22;35622;52.008;5.426;2023-04-03T16:42:51;13.40;29.40
49731;DHT22;35622;52.008;5.426;2023-04-03T16:45:19;13.30;29.50
49731;DHT22;35622;52.008;5.426;2023-04-03T16:47:45;13.30;29.40
49731;DHT22;35622;52.008;5.426;2023-04-03T16:50:11;13.10;29.40
49731;DHT22;35622;52.008;5.426;2023-04-03T16:52:36;13.20;29.60
49731;DHT22;35622;52.008;5.426;2023-04-03T16:55:02;13.00;29.70
49731;DHT22;35622;52.008;5.426;2023-04-03T16:57:28;12.90;29.90
49731;DHT22;35622;52.008;5.426;2023-04-03T16:59:54;12.70;30.00
49731;DHT22;35622;52.008;5.426;2023-04-03T17:02:21;12.80;30.30
49731;DHT22;35622;52.008;5.426;2023-04-03T17:04:50;12.80;30.20
49731;DHT22;35622;52.008;5.426;2023-04-03T17:07:16;12.70;30.30
49731;DHT22;35622;52.008;5.426;2023-04-03T17:09:42;12.60;30.50
49731;DHT22;35622;52.008;5.426;2023-04-03T17:12:07;12.60;31.10
49731;DHT22;35622;52.008;5.426;2023-04-03T17:14:33;12.70;31.70
49731;DHT22;35622;52.008;5.426;2023-04-03T17:16:59;12.70;31.80
49731;DHT22;35622;52.008;5.426;2023-04-03T17:19:24;12.60;31.60
49731;DHT22;35622;52.008;5.426;2023-04-03T17:21:50;12.50;31.30
49731;DHT22;35622;52.008;5.426;2023-04-03T17:24:16;12.40;31.50
49731;DHT22;35622;52.008;5.426;2023-04-03T17:26:47;12.40;31.80
49731;DHT22;35622;52.008;5.426;2023-04-03T17:29:13;12.40;31.80
49731;DHT22;35622;52.008;5.426;2023-04-03T17:31:38;12.20;31.80
49731;DHT22;35622;52.008;5.426;2023-04-03T17:34:04;12.20;32.10
49731;DHT22;35622;52.008;5.426;2023-04-03T17:36:31;12.10;32.30
49731;DHT22;35622;52.008;5.426;2023-04-03T17:38:57;12.00;32.00
49731;DHT22;35622;52.008;5.426;2023-04-03T17:41:22;12.00;31.90
49731;DHT22;35622;52.008;5.426;2023-04-03T17:43:48;11.90;32.10
49731;DHT22;35622;52.008;5.426;2023-04-03T17:46:14;11.80;32.00
49731;DHT22;35622;52.008;5.426;2023-04-03T17:48:42;11.80;32.00
49731;DHT22;35622;52.008;5.426;2023-04-03T17:51:11;11.70;32.20
49731;DHT22;35622;52.008;5.426;2023-04-03T17:53:37;11.70;32.40
49731;DHT22;35622;52.008;5.426;2023-04-03T17:56:07;11.60;32.80